Time;durP1;ratioP1;P1;durP2;ratioP2;P2;SDS_P1;SDS_P2;PMS_P1;PMS_P2;Temp;Humidity;BMP_temperature;BMP_pressure;BME280_temperature;BME280_humidity;BME280_pressure;Samples;Min_cycle;Max_cycle;Signal;HPM_P1;HPM_P2
2022/08/02 00:00:28;;;;;;;7.28;3.28;;;12.20;99.90;;;;;;5036158;28;20128;-70
2022/08/02 00:02:53;;;;;;;6.32;3.60;;;12.20;99.90;;;;;;5036139;28;20132;-69
2022/08/02 00:05:19;;;;;;;7.75;3.10;;;12.20;99.90;;;;;;5036143;28;20048;-69
2022/08/02 00:07:45;;;;;;;8.00;2.97;;;12.30;99.90;;;;;;5036158;28;20038;-70
2022/08/02 00:10:11;;;;;;;5.35;2.90;;;12.30;99.90;;;;;;5031619;28;20533;-70
2022/08/02 00:12:37;;;;;;;9.05;2.72;;;12.30;99.90;;;;;;5016724;28;20075;-71
2022/08/02 00:15:05;;;;;;;7.30;2.60;;;12.30;99.90;;;;;;5015764;28;20523;-70
2022/08/02 00:17:31;;;;;;;5.40;2.75;;;12.30;99.90;;;;;;4981700;28;20367;-70
2022/08/02 00:19:56;;;;;;;9.40;2.60;;;12.30;99.90;;;;;;5016171;28;20052;-70
2022/08/02 00:22:22;;;;;;;8.75;3.05;;;12.30;99.90;;;;;;5016114;28;20425;-71
2022/08/02 00:24:47;;;;;;;8.52;3.00;;;12.30;99.90;;;;;;5016074;28;20052;-71
2022/08/02 00:27:13;;;;;;;8.23;2.58;;;12.30;99.90;;;;;;4999053;28;20120;-70
2022/08/02 00:29:38;;;;;;;5.60;2.38;;;12.30;99.90;;;;;;5015773;28;20430;-71
2022/08/02 00:32:04;;;;;;;7.32;2.83;;;12.30;99.90;;;;;;5015885;28;20045;-69
2022/08/02 00:34:30;;;;;;;7.97;2.58;;;12.30;99.90;;;;;;5015871;28;20107;-69
2022/08/02 00:36:55;;;;;;;10.15;2.67;;;12.30;99.90;;;;;;5015917;28;20351;-70
2022/08/02 00:39:21;;;;;;;10.10;3.55;;;12.30;99.90;;;;;;5015461;28;20061;-70
2022/08/02 00:41:49;;;;;;;5.78;2.47;;;12.20;99.90;;;;;;5032088;28;20072;-70
2022/08/02 00:44:19;;;;;;;4.32;2.17;;;12.20;99.90;;;;;;5035616;28;20120;-69
2022/08/02 00:46:46;;;;;;;8.43;3.03;;;12.20;99.90;;;;;;5035711;28;20370;-70
2022/08/02 00:49:12;;;;;;;7.75;2.47;;;12.30;99.90;;;;;;5035248;28;20454;-70
2022/08/02 00:51:38;;;;;;;10.57;2.55;;;12.10;99.90;;;;;;5035429;28;20045;-71
2022/08/02 00:54:05;;;;;;;6.63;2.97;;;12.10;99.90;;;;;;5034407;28;20381;-70
2022/08/02 00:56:30;;;;;;;12.50;2.47;;;12.10;99.90;;;;;;5018314;28;20461;-70
2022/08/02 00:58:56;;;;;;;9.13;2.70;;;12.10;99.90;;;;;;5034675;28;20052;-70
2022/08/02 01:01:37;;;;;;;4.47;2.22;;;12.00;99.90;;;;;;5035316;28;20328;-70
2022/08/02 01:04:13;;;;;;;16.50;3.20;;;11.90;99.90;;;;;;5035223;28;20410;-70
2022/08/02 01:06:41;;;;;;;5.45;2.63;;;11.90;99.90;;;;;;5035753;28;20393;-70
2022/08/02 01:09:07;;;;;;;7.80;2.80;;;11.90;99.90;;;;;;5034831;28;20037;-70
2022/08/02 01:11:33;;;;;;;5.97;2.70;;;11.90;99.90;;;;;;5031917;28;20044;-71
2022/08/02 01:14:07;;;;;;;4.70;2.55;;;11.90;99.90;;;;;;5015351;28;20120;-70
2022/08/02 01:16:38;;;;;;;20.35;3.33;;;11.80;99.90;;;;;;5015325;28;20132;-70
2022/08/02 01:19:42;;;;;;;4.43;2.05;;;11.80;99.90;;;;;;5015306;28;20038;-69
2022/08/02 01:22:10;;;;;;;;;;;11.80;99.90;;;;;;5003298;28;20065;-69
2022/08/02 01:25:12;;;;;;;7.78;2.28;;;11.80;99.90;;;;;;5015166;28;19921;-69
2022/08/02 01:27:53;;;;;;;10.05;2.85;;;11.70;99.90;;;;;;5016130;28;20410;-70
2022/08/02 01:30:19;;;;;;;5.07;2.35;;;11.70;99.90;;;;;;5015282;28;20135;-69
2022/08/02 01:32:51;;;;;;;8.55;3.00;;;11.60;99.90;;;;;;5015274;28;20042;-70
2022/08/02 01:35:25;;;;;;;6.13;2.08;;;11.60;99.90;;;;;;5015138;28;20470;-69
2022/08/02 01:38:00;;;;;;;6.32;2.25;;;11.60;99.90;;;;;;5014992;28;20057;-70
2022/08/02 01:40:33;;;;;;;8.50;2.50;;;11.60;99.90;;;;;;5015007;28;20054;-69
2022/08/02 01:42:59;;;;;;;13.93;2.70;;;11.60;99.90;;;;;;5032954;28;20053;-69
2022/08/02 01:45:31;;;;;;;12.50;2.38;;;11.60;99.90;;;;;;5034866;28;20132;-69
2022/08/02 01:47:59;;;;;;;7.20;2.35;;;11.50;99.90;;;;;;5034795;28;20045;-70
2022/08/02 01:50:31;;;;;;;5.25;2.22;;;11.50;99.90;;;;;;5034507;28;20045;-71
2022/08/02 01:53:02;;;;;;;8.18;2.53;;;11.50;99.90;;;;;;5034487;28;20124;-70
2022/08/02 01:55:42;;;;;;;5.90;2.00;;;11.50;99.90;;;;;;5034169;28;20060;-70
2022/08/02 01:58:09;;;;;;;8.27;3.22;;;11.50;99.90;;;;;;5034953;28;20361;-69
2022/08/02 02:00:38;;;;;;;6.82;2.55;;;11.50;99.90;;;;;;5034791;28;20041;-70
2022/08/02 02:03:07;;;;;;;5.85;2.60;;;11.50;99.90;;;;;;5034379;28;20041;-70
2022/08/02 02:05:35;;;;;;;6.97;2.47;;;11.50;99.90;;;;;;5037817;28;20504;-69
2022/08/02 02:08:03;;;;;;;8.90;2.30;;;11.60;99.90;;;;;;5038287;28;20115;-71
2022/08/02 02:10:31;;;;;;;4.72;2.45;;;11.50;99.90;;;;;;5035859;28;20056;-69
2022/08/02 02:13:01;;;;;;;5.60;2.65;;;11.50;99.90;;;;;;5018143;28;20422;-70
2022/08/02 02:15:29;;;;;;;11.88;2.67;;;11.50;99.90;;;;;;5000526;28;20132;-70
2022/08/02 02:17:57;;;;;;;3.92;2.35;;;11.50;99.90;;;;;;5018462;28;20438;-70
2022/08/02 02:20:23;;;;;;;6.43;3.17;;;11.50;99.90;;;;;;5018174;28;20479;-70
2022/08/02 02:22:49;;;;;;;6.47;3.13;;;11.50;99.90;;;;;;5018492;28;20038;-69
2022/08/02 02:25:17;;;;;;;9.43;2.63;;;11.50;99.90;;;;;;5018142;28;20120;-69
2022/08/02 02:28:00;;;;;;;7.28;2.72;;;11.50;99.90;;;;;;5024247;28;20044;-70
2022/08/02 02:30:28;;;;;;;4.80;2.70;;;11.60;99.90;;;;;;5037475;28;20469;-70
2022/08/02 02:32:58;;;;;;;12.55;3.78;;;11.60;99.90;;;;;;5037641;28;20519;-70
2022/08/02 02:35:28;;;;;;;4.90;2.25;;;11.50;99.90;;;;;;5020174;28;20106;-71
2022/08/02 02:37:55;;;;;;;6.93;3.03;;;11.50;99.90;;;;;;5037349;28;20103;-69
2022/08/02 02:40:22;;;;;;;5.25;2.40;;;11.60;99.90;;;;;;5037443;28;20049;-70
2022/08/02 02:42:50;;;;;;;6.63;2.40;;;11.60;99.90;;;;;;5033662;28;20350;-69
2022/08/02 02:45:17;;;;;;;6.72;3.17;;;11.60;99.90;;;;;;5037844;28;20056;-69
2022/08/02 02:47:44;;;;;;;7.68;2.67;;;11.60;99.90;;;;;;5037611;28;20369;-70
2022/08/02 02:50:11;;;;;;;7.82;2.78;;;11.60;99.90;;;;;;5003835;28;20053;-69
2022/08/02 02:52:38;;;;;;;5.95;2.17;;;11.60;99.90;;;;;;5037572;28;20425;-70
2022/08/02 02:55:05;;;;;;;6.00;3.05;;;11.60;99.90;;;;;;5037161;28;20053;-70
2022/08/02 02:57:32;;;;;;;4.50;2.38;;;11.60;99.90;;;;;;5028068;28;20038;-69
2022/08/02 02:59:58;;;;;;;7.32;2.85;;;11.60;99.90;;;;;;5017454;28;20050;-70
2022/08/02 03:02:25;;;;;;;9.82;2.78;;;11.60;99.90;;;;;;5017860;28;20046;-71
2022/08/02 03:04:51;;;;;;;5.00;2.47;;;11.60;99.90;;;;;;5017579;28;20053;-70
2022/08/02 03:07:17;;;;;;;6.00;2.10;;;11.60;99.90;;;;;;5017729;28;20115;-71
2022/08/02 03:09:43;;;;;;;4.05;2.05;;;11.60;99.90;;;;;;5017155;28;20046;-69
2022/08/02 03:12:09;;;;;;;4.45;2.58;;;11.60;99.90;;;;;;5034541;28;20056;-70
2022/08/02 03:14:42;;;;;;;4.40;2.35;;;11.60;99.90;;;;;;5036910;28;20084;-69
2022/08/02 03:17:08;;;;;;;12.38;2.67;;;11.60;99.90;;;;;;5036126;28;20042;-69
2022/08/02 03:19:34;;;;;;;8.23;2.90;;;11.60;99.90;;;;;;5037089;28;20042;-69
2022/08/02 03:21:59;;;;;;;7.40;2.97;;;11.60;99.90;;;;;;5019115;28;20350;-69
2022/08/02 03:24:25;;;;;;;3.90;2.10;;;11.60;99.90;;;;;;5036714;28;20111;-71
2022/08/02 03:26:50;;;;;;;7.15;2.00;;;11.60;99.90;;;;;;5018931;28;20056;-70
2022/08/02 03:29:16;;;;;;;6.18;2.70;;;11.60;99.90;;;;;;5016618;28;20050;-70
2022/08/02 03:31:44;;;;;;;4.65;2.10;;;11.50;99.90;;;;;;5017299;28;20097;-70
2022/08/02 03:34:10;;;;;;;5.85;2.50;;;11.50;99.90;;;;;;5016781;28;20042;-69
2022/08/02 03:36:37;;;;;;;6.20;2.53;;;11.50;99.90;;;;;;5016778;28;20034;-69
2022/08/02 03:39:03;;;;;;;9.25;3.38;;;11.50;99.90;;;;;;5016778;28;20426;-71
2022/08/02 03:41:30;;;;;;;8.13;2.35;;;11.60;99.90;;;;;;5014888;28;20045;-70
2022/08/02 03:43:56;;;;;;;9.27;2.80;;;11.60;99.90;;;;;;5019698;28;20045;-70
2022/08/02 03:46:24;;;;;;;5.13;2.60;;;11.60;99.90;;;;;;5036691;28;20140;-70
2022/08/02 03:48:51;;;;;;;9.13;2.83;;;11.60;99.90;;;;;;5036464;28;20143;-69
2022/08/02 03:51:19;;;;;;;6.57;2.88;;;11.60;99.90;;;;;;5036243;28;20045;-71
2022/08/02 03:53:45;;;;;;;11.57;2.90;;;11.70;99.90;;;;;;5036134;28;20076;-69
2022/08/02 03:56:10;;;;;;;7.28;3.15;;;11.60;99.90;;;;;;5036239;28;20049;-69
2022/08/02 03:58:36;;;;;;;5.05;2.65;;;11.70;99.90;;;;;;5019774;28;20405;-71
2022/08/02 04:01:02;;;;;;;4.65;2.17;;;11.80;99.90;;;;;;5000849;28;20045;-70
2022/08/02 04:03:28;;;;;;;7.97;2.85;;;11.80;99.90;;;;;;5031134;28;20041;-69
2022/08/02 04:05:53;;;;;;;6.47;2.80;;;11.80;99.90;;;;;;5016217;28;20501;-69
2022/08/02 04:08:19;;;;;;;7.45;2.78;;;11.80;99.90;;;;;;5027349;28;20052;-69
2022/08/02 04:13:32;;;;;;;13.07;3.00;;;11.90;99.90;;;;;;5035991;28;20092;-70
2022/08/02 04:16:21;;;;;;;8.18;3.03;;;11.90;99.90;;;;;;5035800;28;20045;-70
2022/08/02 04:18:55;;;;;;;9.77;3.03;;;12.00;99.90;;;;;;5036204;28;20076;-70
2022/08/02 04:21:25;;;;;;;8.23;3.03;;;12.00;99.90;;;;;;5036031;28;20037;-70
2022/08/02 04:23:51;;;;;;;19.27;3.25;;;12.10;99.90;;;;;;5035734;28;20038;-70
2022/08/02 04:26:18;;;;;;;9.00;3.53;;;12.20;99.90;;;;;;5035400;28;20072;-70
2022/08/02 04:28:44;;;;;;;13.93;3.42;;;12.20;99.90;;;;;;5034850;28;20079;-70
2022/08/02 04:31:10;;;;;;;13.77;3.72;;;12.20;99.90;;;;;;5036144;28;20387;-70
2022/08/02 04:33:37;;;;;;;12.57;3.55;;;12.30;99.90;;;;;;5035765;28;20037;-70
2022/08/02 04:36:05;;;;;;;9.07;3.38;;;12.30;99.90;;;;;;5035481;28;20076;-70
2022/08/02 04:38:30;;;;;;;9.85;3.65;;;12.40;99.90;;;;;;5035457;28;20053;-69
2022/08/02 04:40:56;;;;;;;8.18;2.72;;;12.50;99.90;;;;;;5028227;28;20383;-70
2022/08/02 04:43:22;;;;;;;8.13;2.55;;;12.50;99.90;;;;;;5015420;28;20048;-69
2022/08/02 04:45:51;;;;;;;11.32;4.00;;;12.50;99.90;;;;;;5015440;28;20397;-70
2022/08/02 04:48:17;;;;;;;5.32;2.70;;;12.60;99.90;;;;;;5015715;28;20174;-70
2022/08/02 04:50:43;;;;;;;9.02;3.10;;;12.60;99.90;;;;;;5015551;28;20085;-70
2022/08/02 04:53:08;;;;;;;7.65;3.80;;;12.70;99.90;;;;;;5015613;28;20033;-69
2022/08/02 04:55:34;;;;;;;8.10;3.40;;;12.70;99.90;;;;;;5015390;28;20061;-70
2022/08/02 04:58:01;;;;;;;6.30;2.83;;;12.70;99.90;;;;;;5032204;28;20059;-70
2022/08/02 05:00:27;;;;;;;6.35;2.58;;;12.80;99.90;;;;;;5018503;28;20136;-69
2022/08/02 05:02:55;;;;;;;9.13;3.22;;;12.80;99.90;;;;;;5035085;28;20107;-69
2022/08/02 05:05:21;;;;;;;6.47;3.85;;;12.90;99.90;;;;;;5035132;28;20357;-69
2022/08/02 05:07:46;;;;;;;6.78;2.80;;;12.90;99.90;;;;;;5035428;28;20120;-70
2022/08/02 05:10:12;;;;;;;6.72;2.60;;;12.90;99.90;;;;;;5035033;28;20049;-70
2022/08/02 05:12:38;;;;;;;6.07;3.05;;;13.00;99.90;;;;;;5018466;28;20049;-71
2022/08/02 05:15:05;;;;;;;7.13;3.00;;;13.00;99.90;;;;;;5015225;28;20045;-69
2022/08/02 05:17:30;;;;;;;13.20;3.88;;;13.10;99.90;;;;;;5015181;28;20133;-70
2022/08/02 05:19:56;;;;;;;11.00;3.85;;;13.20;99.90;;;;;;5015147;28;20081;-70
2022/08/02 05:22:22;;;;;;;10.70;3.47;;;13.30;99.90;;;;;;5015410;28;20042;-70
2022/08/02 05:24:47;;;;;;;8.77;3.10;;;13.30;99.90;;;;;;5015140;28;20045;-70
2022/08/02 05:27:13;;;;;;;10.10;3.00;;;13.50;99.90;;;;;;5029577;28;20102;-70
2022/08/02 05:29:39;;;;;;;23.30;4.30;;;13.60;99.90;;;;;;5034605;28;20045;-69
2022/08/02 05:32:04;;;;;;;9.20;2.88;;;13.80;99.90;;;;;;5035213;28;20048;-70
2022/08/02 05:34:30;;;;;;;12.10;3.50;;;14.00;99.90;;;;;;5034955;28;20104;-71
2022/08/02 05:36:56;;;;;;;10.48;3.78;;;14.40;99.90;;;;;;5035022;28;20103;-69
2022/08/02 05:39:21;;;;;;;9.35;3.13;;;15.60;99.90;;;;;;5037179;28;20132;-70
2022/08/02 05:41:47;;;;;;;9.48;3.25;;;16.90;99.90;;;;;;5018952;28;20049;-71
2022/08/02 05:44:12;;;;;;;8.75;2.40;;;18.30;99.90;;;;;;5038304;28;20358;-70
2022/08/02 05:46:38;;;;;;;5.85;2.78;;;19.40;99.90;;;;;;5038697;28;20087;-70
2022/08/02 05:49:04;;;;;;;8.48;2.40;;;20.30;99.90;;;;;;5038598;28;20365;-69
2022/08/02 05:51:58;;;;;;;7.03;2.30;;;21.10;99.90;;;;;;5038796;28;20045;-71
2022/08/02 05:54:39;;;;;;;6.45;2.60;;;21.80;99.90;;;;;;5020617;28;20058;-70
2022/08/02 05:57:15;;;;;;;9.38;2.70;;;22.40;99.90;;;;;;5038438;28;20046;-71
2022/08/02 06:00:04;;;;;;;7.82;2.13;;;22.90;99.90;;;;;;5021361;28;20111;-71
2022/08/02 06:02:56;;;;;;;5.25;2.13;;;23.70;99.90;;;;;;5038627;28;20049;-70
2022/08/02 06:05:26;;;;;;;5.57;2.30;;;23.80;98.40;;;;;;5020938;28;20099;-71
2022/08/02 06:07:54;;;;;;;5.13;2.30;;;24.00;97.70;;;;;;5038539;28;20049;-70
2022/08/02 06:10:21;;;;;;;5.75;2.00;;;24.20;98.80;;;;;;5038724;28;20128;-70
2022/08/02 06:13:04;;;;;;;6.43;2.00;;;24.40;97.70;;;;;;5038252;28;20246;-70
2022/08/02 06:15:30;;;;;;;3.83;1.60;;;24.60;97.20;;;;;;5037927;28;20108;-70
2022/08/02 06:17:56;;;;;;;7.82;2.30;;;25.00;97.10;;;;;;5035264;28;20093;-71
2022/08/02 06:20:24;;;;;;;4.90;1.35;;;25.10;96.60;;;;;;5018152;28;20136;-71
2022/08/02 06:22:53;;;;;;;3.90;1.92;;;25.00;95.80;;;;;;5017884;28;20088;-71
2022/08/02 06:25:21;;;;;;;3.65;1.55;;;25.20;96.90;;;;;;5018230;28;20050;-71
2022/08/02 06:27:48;;;;;;;4.05;1.27;;;25.30;96.00;;;;;;5018212;28;20042;-70
2022/08/02 06:30:14;;;;;;;3.72;1.73;;;25.40;95.50;;;;;;5018608;28;20370;-69
2022/08/02 06:32:42;;;;;;;6.05;1.75;;;25.60;97.00;;;;;;5018604;28;20037;-69
2022/08/02 06:35:08;;;;;;;5.45;2.00;;;26.00;96.60;;;;;;5017937;28;20439;-70
2022/08/02 06:37:46;;;;;;;7.43;2.05;;;26.20;96.40;;;;;;5034569;28;20037;-70
2022/08/02 06:40:44;;;;;;;3.40;1.10;;;26.50;95.60;;;;;;5037487;28;20053;-68
2022/08/02 06:43:12;;;;;;;6.93;1.90;;;27.10;94.80;;;;;;5018648;28;20092;-69
2022/08/02 06:45:38;;;;;;;5.05;1.67;;;27.10;94.50;;;;;;5037601;28;20045;-69
2022/08/02 06:48:05;;;;;;;5.40;1.23;;;27.00;95.10;;;;;;5037589;28;20126;-70
2022/08/02 06:50:31;;;;;;;6.30;1.52;;;27.00;94.70;;;;;;5034118;28;20061;-69
2022/08/02 06:52:57;;;;;;;6.25;1.55;;;26.90;94.00;;;;;;5017295;28;20058;-70
2022/08/02 06:55:22;;;;;;;6.80;1.88;;;26.70;93.60;;;;;;5017438;28;20081;-69
2022/08/02 06:57:48;;;;;;;3.65;1.13;;;26.60;94.70;;;;;;5017541;28;20046;-69
2022/08/02 07:00:14;;;;;;;6.03;1.50;;;26.80;95.40;;;;;;5017586;28;20057;-68
2022/08/02 07:02:40;;;;;;;4.05;1.05;;;27.40;95.50;;;;;;5017708;28;20080;-70
2022/08/02 07:05:06;;;;;;;4.38;1.40;;;27.90;94.60;;;;;;5018088;28;20057;-69
2022/08/02 07:07:32;;;;;;;2.95;1.38;;;28.50;94.30;;;;;;5036746;28;20438;-69
2022/08/02 07:09:58;;;;;;;5.03;1.48;;;28.80;94.10;;;;;;5037456;28;20098;-70
2022/08/02 07:12:24;;;;;;;7.57;1.38;;;28.90;92.30;;;;;;5037342;28;20045;-69
2022/08/02 07:14:50;;;;;;;4.60;1.23;;;28.50;92.80;;;;;;5036826;28;20176;-69
2022/08/02 07:17:15;;;;;;;6.07;1.80;;;28.40;92.70;;;;;;5036583;28;20052;-69
2022/08/02 07:19:41;;;;;;;4.72;1.30;;;27.90;92.70;;;;;;5037111;28;20060;-70
2022/08/02 07:22:07;;;;;;;4.80;1.35;;;27.80;92.70;;;;;;5016631;28;20489;-69
2022/08/02 07:24:32;;;;;;;6.32;1.75;;;27.30;92.80;;;;;;5017431;28;20053;-71
2022/08/02 07:26:59;;;;;;;5.90;1.45;;;27.20;93.00;;;;;;5017398;28;20046;-71
2022/08/02 07:29:24;;;;;;;6.90;1.90;;;26.70;93.30;;;;;;5016942;28;20042;-70
2022/08/02 07:31:50;;;;;;;4.03;0.95;;;26.30;94.00;;;;;;5017324;28;20064;-71
2022/08/02 07:34:16;;;;;;;4.28;1.20;;;26.30;94.10;;;;;;5016884;28;20057;-70
2022/08/02 07:36:42;;;;;;;4.30;1.08;;;26.30;93.60;;;;;;5018386;28;20103;-70
2022/08/02 07:39:07;;;;;;;4.70;1.10;;;26.30;93.60;;;;;;5036234;28;20068;-71
2022/08/02 07:41:33;;;;;;;3.13;0.98;;;26.70;94.10;;;;;;5036430;28;20053;-70
2022/08/02 07:43:58;;;;;;;3.30;1.13;;;27.30;92.80;;;;;;5036533;28;20056;-69
2022/08/02 07:46:24;;;;;;;3.60;1.17;;;27.30;92.60;;;;;;5036699;28;20080;-71
2022/08/02 07:48:53;;;;;;;3.35;1.00;;;27.50;92.30;;;;;;5019463;28;20049;-70
2022/08/02 07:51:22;;;;;;;3.13;1.15;;;27.50;92.20;;;;;;5036523;28;20060;-70
2022/08/02 07:53:47;;;;;;;2.75;1.17;;;27.60;92.40;;;;;;5031368;28;20057;-70
2022/08/02 07:56:13;;;;;;;2.38;0.90;;;28.10;92.20;;;;;;5016481;28;20366;-70
2022/08/02 07:58:41;;;;;;;3.95;0.93;;;28.10;92.00;;;;;;5016305;28;20474;-71
2022/08/02 08:01:07;;;;;;;4.53;0.73;;;28.30;92.00;;;;;;5016368;28;20050;-69
2022/08/02 08:03:33;;;;;;;5.93;1.33;;;28.60;90.90;;;;;;5016701;28;20446;-71
2022/08/02 08:05:59;;;;;;;4.97;1.00;;;28.50;90.70;;;;;;5016085;28;20121;-81
2022/08/02 08:08:24;;;;;;;4.78;0.85;;;28.70;90.60;;;;;;5019435;28;20117;-71
2022/08/02 08:10:50;;;;;;;4.18;1.00;;;28.60;89.60;;;;;;5036037;28;20370;-69
2022/08/02 08:13:16;;;;;;;6.50;0.88;;;28.90;91.00;;;;;;5035764;28;20034;-71
2022/08/02 08:15:42;;;;;;;3.10;1.00;;;29.00;90.30;;;;;;5035672;28;20339;-70
2022/08/02 08:18:07;;;;;;;4.47;1.10;;;28.80;90.30;;;;;;5035984;28;20122;-71
2022/08/02 08:20:33;;;;;;;4.38;0.95;;;28.40;89.40;;;;;;5035993;28;20045;-69
2022/08/02 08:22:59;;;;;;;2.53;1.00;;;28.40;90.80;;;;;;5033330;28;20052;-70
2022/08/02 08:25:24;;;;;;;3.15;0.80;;;28.60;91.00;;;;;;5015670;28;20045;-69
2022/08/02 08:27:51;;;;;;;3.53;0.80;;;28.30;89.50;;;;;;5015761;28;20049;-69
2022/08/02 08:30:18;;;;;;;3.45;1.30;;;28.40;89.50;;;;;;5016177;28;20370;-71
2022/08/02 08:32:44;;;;;;;2.03;0.82;;;28.20;89.90;;;;;;4981329;28;20053;-71
2022/08/02 08:35:10;;;;;;;2.08;0.60;;;28.20;88.80;;;;;;5015679;28;20064;-70
2022/08/02 08:37:36;;;;;;;1.15;0.60;;;27.80;87.50;;;;;;5016555;28;20037;-69
2022/08/02 08:40:10;;;;;;;2.35;0.90;;;28.00;89.10;;;;;;5034734;28;20053;-70
2022/08/02 08:42:38;;;;;;;1.48;0.45;;;28.10;86.40;;;;;;5035843;28;20358;-69
2022/08/02 08:45:04;;;;;;;4.05;0.90;;;28.10;86.70;;;;;;5034901;28;20045;-70
2022/08/02 08:47:41;;;;;;;3.70;0.70;;;28.10;86.10;;;;;;5015507;28;20053;-70
2022/08/02 08:50:15;;;;;;;2.28;0.75;;;28.20;88.10;;;;;;5015304;28;20502;-71
2022/08/02 08:52:46;;;;;;;1.90;0.50;;;28.30;88.40;;;;;;5015374;28;20085;-69
2022/08/02 08:55:13;;;;;;;1.50;0.77;;;28.60;89.00;;;;;;5015415;28;20045;-70
2022/08/02 08:57:41;;;;;;;2.60;0.80;;;28.80;87.80;;;;;;5019750;28;20370;-70
2022/08/02 09:00:09;;;;;;;1.17;0.77;;;28.90;88.20;;;;;;5035089;28;20064;-70
2022/08/02 09:02:35;;;;;;;3.72;0.85;;;28.90;87.50;;;;;;5034810;28;20430;-71
2022/08/02 09:05:01;;;;;;;2.17;0.70;;;28.70;88.30;;;;;;5035053;28;20049;-70
2022/08/02 09:07:27;;;;;;;2.35;0.77;;;28.40;86.80;;;;;;5018255;28;20409;-71
2022/08/02 09:09:53;;;;;;;2.97;0.90;;;28.40;87.50;;;;;;5035059;28;20128;-71
2022/08/02 09:12:21;;;;;;;1.75;0.60;;;28.40;88.70;;;;;;5031791;28;20050;-71
2022/08/02 09:14:47;;;;;;;2.38;0.80;;;28.60;89.50;;;;;;5013908;28;20045;-71
2022/08/02 09:17:12;;;;;;;2.42;0.75;;;28.40;88.30;;;;;;5015095;28;20041;-70
2022/08/02 09:19:39;;;;;;;2.83;0.70;;;28.00;87.10;;;;;;5015001;28;20046;-70
2022/08/02 09:22:09;;;;;;;5.97;1.00;;;27.90;89.60;;;;;;5015522;28;20361;-70
2022/08/02 09:24:50;;;;;;;2.47;0.88;;;27.40;89.60;;;;;;5015924;28;20054;-71
2022/08/02 09:27:21;;;;;;;2.30;0.88;;;27.30;90.90;;;;;;5015077;28;20439;-70
2022/08/02 09:29:49;;;;;;;2.97;0.95;;;27.10;90.10;;;;;;5031659;28;20041;-70
2022/08/02 09:32:16;;;;;;;1.58;1.00;;;27.10;90.50;;;;;;5034901;28;20374;-70
2022/08/02 09:34:50;;;;;;;3.33;0.82;;;27.00;90.00;;;;;;5034563;28;20476;-70
2022/08/02 09:37:26;;;;;;;4.10;1.10;;;27.00;90.20;;;;;;5034846;28;20081;-71
2022/08/02 09:39:52;;;;;;;2.35;0.85;;;27.10;90.60;;;;;;5035450;28;20049;-69
2022/08/02 09:42:18;;;;;;;2.38;0.85;;;27.10;90.50;;;;;;5034684;28;20053;-71
2022/08/02 09:44:55;;;;;;;3.90;1.00;;;27.30;91.30;;;;;;5016033;28;20046;-69
2022/08/02 09:47:20;;;;;;;2.83;1.15;;;27.40;91.10;;;;;;5014761;28;20042;-70
2022/08/02 09:49:46;;;;;;;4.03;0.82;;;27.70;90.80;;;;;;5016816;28;20046;-68
2022/08/02 09:52:13;;;;;;;1.60;0.90;;;27.70;90.10;;;;;;5015099;28;20081;-70
2022/08/02 09:54:40;;;;;;;3.03;1.20;;;27.90;91.20;;;;;;5014668;28;20033;-70
2022/08/02 09:57:06;;;;;;;1.33;0.80;;;28.20;90.80;;;;;;5014898;28;20139;-71
2022/08/02 09:59:31;;;;;;;4.43;1.02;;;28.20;90.80;;;;;;4997713;28;20065;-70
2022/08/02 10:01:59;;;;;;;2.67;0.88;;;28.20;90.80;;;;;;5027824;28;20049;-70
2022/08/02 10:04:28;;;;;;;4.25;1.20;;;28.00;90.60;;;;;;5014752;28;20358;-70
2022/08/02 10:06:54;;;;;;;2.55;0.95;;;27.90;91.10;;;;;;5014627;28;20071;-71
2022/08/02 10:09:21;;;;;;;4.55;1.00;;;27.90;91.50;;;;;;5014742;28;20188;-69
2022/08/02 10:11:47;;;;;;;7.05;1.35;;;27.80;90.90;;;;;;5014736;28;20049;-69
2022/08/02 10:14:14;;;;;;;7.20;1.20;;;27.80;90.30;;;;;;5014914;28;20427;-71
2022/08/02 10:16:43;;;;;;;7.43;1.50;;;27.90;91.00;;;;;;5014811;28;20053;-71
2022/08/02 10:19:09;;;;;;;2.25;1.10;;;27.80;91.60;;;;;;5034039;28;20358;-70
2022/08/02 10:21:48;;;;;;;2.00;1.00;;;27.70;91.30;;;;;;5035003;28;20124;-70
2022/08/02 10:24:17;;;;;;;2.80;1.13;;;27.90;91.80;;;;;;5016662;28;20049;-68
2022/08/02 10:26:45;;;;;;;4.97;1.30;;;28.00;92.10;;;;;;5038146;28;20053;-70
2022/08/02 10:29:18;;;;;;;3.85;1.20;;;28.00;91.50;;;;;;5038528;28;20041;-70
2022/08/02 10:32:00;;;;;;;5.53;1.27;;;27.80;91.70;;;;;;5017989;28;20057;-69
2022/08/02 10:34:59;;;;;;;12.18;1.50;;;27.80;92.30;;;;;;5027283;28;20052;-70
2022/08/02 10:37:32;;;;;;;5.22;1.65;;;27.90;92.70;;;;;;5005665;28;20233;-72
2022/08/02 10:39:58;;;;;;;3.50;1.50;;;27.80;92.50;;;;;;5037787;28;20417;-72
2022/08/02 10:42:43;;;;;;;6.45;1.60;;;27.90;91.90;;;;;;5037531;28;20049;-71
2022/08/02 10:45:10;;;;;;;2.70;1.33;;;27.90;92.90;;;;;;5037786;28;20080;-70
2022/08/02 10:47:35;;;;;;;5.38;1.45;;;28.00;92.70;;;;;;5037386;28;20110;-69
2022/08/02 10:50:02;;;;;;;6.28;1.67;;;28.20;92.90;;;;;;5021939;28;20050;-69
2022/08/02 10:52:29;;;;;;;4.05;1.73;;;28.40;93.00;;;;;;5017910;28;20037;-69
2022/08/02 10:54:57;;;;;;;6.18;1.58;;;28.70;92.50;;;;;;5033147;28;20041;-68
2022/08/02 10:57:29;;;;;;;3.38;1.30;;;28.80;92.50;;;;;;5033066;28;20042;-69
2022/08/02 11:00:01;;;;;;;2.65;1.40;;;28.80;92.80;;;;;;5026735;28;20045;-68
2022/08/02 11:02:37;;;;;;;4.17;1.40;;;28.90;92.70;;;;;;5037514;28;20049;-68
2022/08/02 11:05:05;;;;;;;3.20;1.30;;;29.10;92.70;;;;;;5037164;28;20041;-69
2022/08/02 11:07:36;;;;;;;6.57;1.33;;;29.30;92.70;;;;;;5026046;28;20050;-69
2022/08/02 11:10:34;;;;;;;3.90;1.50;;;29.30;92.60;;;;;;5017674;28;20042;-69
2022/08/02 11:13:20;;;;;;;2.08;1.00;;;29.30;92.20;;;;;;5017505;28;20108;-70
2022/08/02 11:15:54;;;;;;;5.25;1.30;;;29.30;91.70;;;;;;5017158;28;20057;-69
2022/08/02 11:18:21;;;;;;;2.28;1.20;;;29.40;91.80;;;;;;5016881;28;20474;-69
2022/08/02 11:21:06;;;;;;;3.70;1.48;;;29.40;91.20;;;;;;5016893;28;20049;-69
2022/08/02 11:23:34;;;;;;;4.80;1.40;;;29.30;91.70;;;;;;5017187;28;20137;-69
2022/08/02 11:26:23;;;;;;;4.55;1.40;;;29.20;91.80;;;;;;5017286;28;20096;-69
2022/08/02 11:28:48;;;;;;;6.50;1.75;;;29.40;92.40;;;;;;5017106;28;20050;-69
2022/08/02 11:31:15;;;;;;;6.28;1.50;;;29.50;92.20;;;;;;5016977;28;20367;-69
2022/08/02 11:33:42;;;;;;;3.35;1.30;;;29.60;92.20;;;;;;5016976;28;20062;-69
2022/08/02 11:36:07;;;;;;;4.72;1.50;;;29.70;92.40;;;;;;5016524;28;20064;-69
2022/08/02 11:38:33;;;;;;;2.78;1.05;;;29.60;92.70;;;;;;5023128;28;20128;-70
2022/08/02 11:41:02;;;;;;;4.40;1.10;;;29.60;92.60;;;;;;5036587;28;20049;-69
2022/08/02 11:43:29;;;;;;;6.78;1.13;;;29.50;92.70;;;;;;5018956;28;20377;-69
2022/08/02 11:45:56;;;;;;;2.28;1.02;;;29.60;92.90;;;;;;5036474;28;20080;-69
2022/08/02 11:48:35;;;;;;;2.50;1.40;;;29.60;92.70;;;;;;5036840;28;20144;-69
2022/08/02 11:51:09;;;;;;;3.78;1.48;;;29.70;92.10;;;;;;5036373;28;20037;-70
2022/08/02 11:54:00;;;;;;;9.30;1.40;;;30.00;92.80;;;;;;5026936;28;20081;-70
2022/08/02 11:56:28;;;;;;;2.63;1.48;;;30.20;92.70;;;;;;5012743;28;20454;-70
2022/08/02 11:59:10;;;;;;;4.22;1.60;;;30.20;92.70;;;;;;5016675;28;20045;-69
2022/08/02 12:01:37;;;;;;;3.03;1.40;;;30.00;92.50;;;;;;5021169;28;20419;-70
2022/08/02 12:04:06;;;;;;;2.45;1.30;;;30.10;92.70;;;;;;5036112;28;20049;-69
2022/08/02 12:06:33;;;;;;;5.75;1.52;;;30.20;92.70;;;;;;5035965;28;20045;-69
2022/08/02 12:09:06;;;;;;;3.75;1.27;;;30.40;92.80;;;;;;5036012;28;20038;-69
2022/08/02 12:11:32;;;;;;;2.60;1.17;;;30.40;92.60;;;;;;5036238;28;20132;-69
2022/08/02 12:13:59;;;;;;;2.75;1.30;;;30.40;92.50;;;;;;5036141;28;20038;-70
2022/08/02 12:19:25;;;;;;;2.00;1.20;;;30.40;92.60;;;;;;5015907;28;20505;-69
2022/08/02 12:22:09;;;;;;;2.72;1.17;;;30.50;92.10;;;;;;5016333;28;20050;-70
2022/08/02 12:24:34;;;;;;;4.57;1.30;;;30.30;91.60;;;;;;5015973;28;20056;-70
2022/08/02 12:27:00;;;;;;;2.08;1.10;;;30.00;92.10;;;;;;5015949;28;20112;-69
2022/08/02 12:29:43;;;;;;;3.30;1.27;;;29.70;92.00;;;;;;5015711;28;20104;-69
2022/08/02 12:32:23;;;;;;;1.60;0.90;;;29.70;92.00;;;;;;5029340;28;20060;-70
2022/08/02 12:35:04;;;;;;;4.43;1.02;;;29.60;91.60;;;;;;5035802;28;20037;-69
2022/08/02 12:37:29;;;;;;;5.35;1.45;;;29.50;91.70;;;;;;5035825;28;20096;-69
2022/08/02 12:39:55;;;;;;;4.25;1.08;;;29.40;91.80;;;;;;5035995;28;20096;-70
2022/08/02 12:42:21;;;;;;;5.03;1.40;;;29.40;92.10;;;;;;5035381;28;20124;-71
2022/08/02 12:44:57;;;;;;;2.55;1.30;;;29.50;92.30;;;;;;5035763;28;20053;-71
2022/08/02 12:47:24;;;;;;;3.60;1.30;;;29.50;92.10;;;;;;5017188;28;20459;-70
2022/08/02 12:50:16;;;;;;;5.47;1.63;;;29.60;92.10;;;;;;5014573;28;20042;-70
2022/08/02 12:52:42;;;;;;;3.65;1.70;;;29.60;92.70;;;;;;5015674;28;20348;-71
2022/08/02 12:55:39;;;;;;;3.40;1.60;;;29.70;92.30;;;;;;5015650;28;20034;-69
2022/08/02 12:58:05;;;;;;;3.15;1.50;;;29.70;92.80;;;;;;5014378;28;20090;-71
2022/08/02 13:00:36;;;;;;;4.30;1.75;;;29.60;92.50;;;;;;5018817;28;20045;-69